Lincoln, MI (48742)

2:08 PM EST on January 25, 2015 (GMT -0500)
Spruce (Buck Run) | Change Station
CLOSE
Current Station
Personal Weather Station
Location: Spruce, MI
Elevation: 827 ft
Nearby Weather Stations

Elev 827 ft 44.85 °N, 83.41 °W | Updated 6 seconds ago

Mostly Cloudy
Mostly Cloudy
16.5 °F
Feels Like 16 °F
N
0.4
Wind Variable Wind from West
Gusts 2.5 mph

Today
High -- | Low -- °F
--% Chance of Precip.
Yesterday
High -- | Low -- °F
Precip. -- in
8:00 AM 5:32 PM
Waxing Crescent, 35% visible
Pressure 30.01 in
Visibility 10.0 miles
Clouds Mostly Cloudy 2600 ft
Windchill 16 °F
Dew Point 1 °F
Humidity 50%
Rainfall 0.00 in
Snow Depth Not available.
UV 0.0 out of 12
Pollen .10 out of 12
Air Quality Not available.
Flu Activity Not available.
METAR KOSC 251853Z AUTO 03007KT 10SM BKN026 M07/M12 A3001 RMK AO2 T10701130

More Conditions Fewer Conditions

Pressure 30.01 in
Visibility 10.0 miles
Clouds Mostly Cloudy 2600 ft
Windchill 16 °F
Dew Point 1 °F
Humidity 50%
Rainfall 0.00 in
Snow Depth Not available.
UV 0.0 out of 12
Pollen .10 out of 12
Air Quality Not available.
Flu Activity Not available.
METAR KOSC 251853Z AUTO 03007KT 10SM BKN026 M07/M12 A3001 RMK AO2 T10701130

More Conditions Fewer Conditions

Nowcast | as of 2:00 PM EST on January 25, 2015

At 3 PM...mostly cloudy. Scattered flurries. Temperature 17. Northeast winds 9 mph. At 5 PM...mostly cloudy. Scattered flurries. Temperature 15. Northeast winds 8 mph. At 7 PM...mostly cloudy. Temperature 13. North winds 6 mph. At 9 PM...partly cloudy. Temperature 10 above. North winds 6 mph.

×

10-Day Weather Forecast

Almanac

Astronomy

Jan. 25, 2015 Rise Set
Actual Time
Civil Twilight
Nautical Twilight
Astronomical Twilight
Moon
Length of Visible Light
Length of Day
Tomorrow will be .
, % of the Moon is Illuminated

Today's Extremes

State Highs State Lows

Community

WunderPhotos

Upload Photos

1,790,025 photos uploaded!

WunderBlogs® & News

Nearby

Air Quality

  Air Quality AQ Index Pollutant
Not available.

Snow Depth

Station Depth Elevation

Earthquake Activity

City Distance Mag. Time & Date
Minimum magnitude displayed is 2.5.

Coastal Water Temperatures

Place Temperature

Nearby Weather Stations